sensor_id;sensor_type;location;lat;lon;timestamp;temperature;humidity
42743;DHT22;28397;44.552;-0.848;2023-07-13T00:01:12;20.70;99.90
42743;DHT22;28397;44.552;-0.848;2023-07-13T00:03:38;20.70;99.90
42743;DHT22;28397;44.552;-0.848;2023-07-13T00:06:07;20.60;99.90
42743;DHT22;28397;44.552;-0.848;2023-07-13T00:08:33;20.60;99.90
42743;DHT22;28397;44.552;-0.848;2023-07-13T00:11:03;20.50;99.90
42743;DHT22;28397;44.552;-0.848;2023-07-13T00:13:30;20.60;99.90
42743;DHT22;28397;44.552;-0.848;2023-07-13T00:15:57;20.60;99.90
42743;DHT22;28397;44.552;-0.848;2023-07-13T00:18:23;20.50;99.90
42743;DHT22;28397;44.552;-0.848;2023-07-13T00:20:49;20.60;99.90
42743;DHT22;28397;44.552;-0.848;2023-07-13T00:23:15;20.90;99.90
42743;DHT22;28397;44.552;-0.848;2023-07-13T00:25:42;21.00;99.90
42743;DHT22;28397;44.552;-0.848;2023-07-13T00:28:08;21.10;99.90
42743;DHT22;28397;44.552;-0.848;2023-07-13T00:30:34;21.20;99.90
42743;DHT22;28397;44.552;-0.848;2023-07-13T00:33:00;21.20;99.90
42743;DHT22;28397;44.552;-0.848;2023-07-13T00:35:27;21.20;99.90
42743;DHT22;28397;44.552;-0.848;2023-07-13T00:37:55;21.20;99.90
42743;DHT22;28397;44.552;-0.848;2023-07-13T00:40:21;21.20;99.90
42743;DHT22;28397;44.552;-0.848;2023-07-13T00:42:47;21.20;99.90
42743;DHT22;28397;44.552;-0.848;2023-07-13T00:47:43;21.10;99.90
42743;DHT22;28397;44.552;-0.848;2023-07-13T00:50:13;21.10;99.90
42743;DHT22;28397;44.552;-0.848;2023-07-13T00:52:41;21.10;99.90
42743;DHT22;28397;44.552;-0.848;2023-07-13T00:55:09;21.00;99.90
42743;DHT22;28397;44.552;-0.848;2023-07-13T00:57:36;20.80;99.90
42743;DHT22;28397;44.552;-0.848;2023-07-13T01:00:05;20.70;99.90
42743;DHT22;28397;44.552;-0.848;2023-07-13T01:02:39;20.60;99.90
42743;DHT22;28397;44.552;-0.848;2023-07-13T01:05:14;20.50;99.90
42743;DHT22;28397;44.552;-0.848;2023-07-13T01:07:41;20.50;99.90
42743;DHT22;28397;44.552;-0.848;2023-07-13T01:10:08;20.50;99.90
42743;DHT22;28397;44.552;-0.848;2023-07-13T01:12:33;20.50;99.90
42743;DHT22;28397;44.552;-0.848;2023-07-13T01:15:01;20.50;99.90
42743;DHT22;28397;44.552;-0.848;2023-07-13T01:17:28;20.50;99.90
42743;DHT22;28397;44.552;-0.848;2023-07-13T01:19:54;20.40;99.90
42743;DHT22;28397;44.552;-0.848;2023-07-13T01:22:20;20.40;99.90
42743;DHT22;28397;44.552;-0.848;2023-07-13T01:24:50;20.50;99.90
42743;DHT22;28397;44.552;-0.848;2023-07-13T01:27:20;20.40;99.90
42743;DHT22;28397;44.552;-0.848;2023-07-13T01:29:46;20.40;99.90
42743;DHT22;28397;44.552;-0.848;2023-07-13T01:32:19;20.40;99.90
42743;DHT22;28397;44.552;-0.848;2023-07-13T01:34:50;20.40;99.90
42743;DHT22;28397;44.552;-0.848;2023-07-13T01:37:16;20.40;99.90
42743;DHT22;28397;44.552;-0.848;2023-07-13T01:39:41;20.60;99.90
42743;DHT22;28397;44.552;-0.848;2023-07-13T01:42:07;20.90;99.90
42743;DHT22;28397;44.552;-0.848;2023-07-13T01:44:33;21.00;99.90
42743;DHT22;28397;44.552;-0.848;2023-07-13T01:46:59;21.00;99.90
42743;DHT22;28397;44.552;-0.848;2023-07-13T01:49:25;21.10;99.90
42743;DHT22;28397;44.552;-0.848;2023-07-13T01:51:50;21.10;99.90
42743;DHT22;28397;44.552;-0.848;2023-07-13T01:54:16;21.10;99.90
42743;DHT22;28397;44.552;-0.848;2023-07-13T01:56:42;21.10;99.90
42743;DHT22;28397;44.552;-0.848;2023-07-13T01:59:08;21.20;99.90
42743;DHT22;28397;44.552;-0.848;2023-07-13T02:01:34;21.20;99.90
42743;DHT22;28397;44.552;-0.848;2023-07-13T02:04:00;21.20;99.90
42743;DHT22;28397;44.552;-0.848;2023-07-13T02:06:26;21.20;99.90
42743;DHT22;28397;44.552;-0.848;2023-07-13T02:08:51;21.20;99.90
42743;DHT22;28397;44.552;-0.848;2023-07-13T02:11:17;21.20;99.90
42743;DHT22;28397;44.552;-0.848;2023-07-13T02:13:43;21.00;99.90
42743;DHT22;28397;44.552;-0.848;2023-07-13T02:16:09;20.80;99.90
42743;DHT22;28397;44.552;-0.848;2023-07-13T02:18:34;20.60;99.90
42743;DHT22;28397;44.552;-0.848;2023-07-13T02:21:00;20.60;99.90
42743;DHT22;28397;44.552;-0.848;2023-07-13T02:23:26;20.50;99.90
42743;DHT22;28397;44.552;-0.848;2023-07-13T02:25:59;20.40;99.90
42743;DHT22;28397;44.552;-0.848;2023-07-13T02:28:25;20.30;99.90
42743;DHT22;28397;44.552;-0.848;2023-07-13T02:30:50;20.20;99.90
42743;DHT22;28397;44.552;-0.848;2023-07-13T02:33:16;20.10;99.90
42743;DHT22;28397;44.552;-0.848;2023-07-13T02:35:42;20.10;99.90
42743;DHT22;28397;44.552;-0.848;2023-07-13T02:38:08;20.00;99.90
42743;DHT22;28397;44.552;-0.848;2023-07-13T02:40:34;20.00;99.90
42743;DHT22;28397;44.552;-0.848;2023-07-13T02:43:01;19.90;99.90
42743;DHT22;28397;44.552;-0.848;2023-07-13T02:45:27;19.90;99.90
42743;DHT22;28397;44.552;-0.848;2023-07-13T02:47:53;19.80;99.90
42743;DHT22;28397;44.552;-0.848;2023-07-13T02:50:19;19.80;99.90
42743;DHT22;28397;44.552;-0.848;2023-07-13T02:52:44;19.70;99.90
42743;DHT22;28397;44.552;-0.848;2023-07-13T02:55:10;19.70;99.90
42743;DHT22;28397;44.552;-0.848;2023-07-13T02:57:36;19.90;99.90
42743;DHT22;28397;44.552;-0.848;2023-07-13T03:00:02;20.00;99.90
42743;DHT22;28397;44.552;-0.848;2023-07-13T03:02:31;20.10;99.90
42743;DHT22;28397;44.552;-0.848;2023-07-13T03:04:57;20.20;99.90
42743;DHT22;28397;44.552;-0.848;2023-07-13T03:07:24;20.30;99.90
42743;DHT22;28397;44.552;-0.848;2023-07-13T03:09:55;20.40;99.90
42743;DHT22;28397;44.552;-0.848;2023-07-13T03:12:21;20.40;99.90
42743;DHT22;28397;44.552;-0.848;2023-07-13T03:14:46;20.40;99.90
42743;DHT22;28397;44.552;-0.848;2023-07-13T03:17:12;20.40;99.90
42743;DHT22;28397;44.552;-0.848;2023-07-13T03:19:38;20.50;99.90
42743;DHT22;28397;44.552;-0.848;2023-07-13T03:22:04;20.50;99.90
42743;DHT22;28397;44.552;-0.848;2023-07-13T03:24:29;20.30;99.90
42743;DHT22;28397;44.552;-0.848;2023-07-13T03:26:55;20.30;99.90
42743;DHT22;28397;44.552;-0.848;2023-07-13T03:29:21;20.20;99.90
42743;DHT22;28397;44.552;-0.848;2023-07-13T03:31:47;19.90;99.90
42743;DHT22;28397;44.552;-0.848;2023-07-13T03:34:12;19.60;99.90
42743;DHT22;28397;44.552;-0.848;2023-07-13T03:36:38;19.50;99.90
42743;DHT22;28397;44.552;-0.848;2023-07-13T03:39:04;19.40;99.90
42743;DHT22;28397;44.552;-0.848;2023-07-13T03:41:33;19.30;99.90
42743;DHT22;28397;44.552;-0.848;2023-07-13T03:43:59;19.20;99.90
42743;DHT22;28397;44.552;-0.848;2023-07-13T03:46:25;19.10;99.90
42743;DHT22;28397;44.552;-0.848;2023-07-13T03:48:51;19.10;99.90
42743;DHT22;28397;44.552;-0.848;2023-07-13T03:51:17;19.00;99.90
42743;DHT22;28397;44.552;-0.848;2023-07-13T03:53:44;18.90;99.90
42743;DHT22;28397;44.552;-0.848;2023-07-13T03:56:10;18.80;99.90
42743;DHT22;28397;44.552;-0.848;2023-07-13T03:58:38;18.70;99.90
42743;DHT22;28397;44.552;-0.848;2023-07-13T04:01:06;18.70;99.90
42743;DHT22;28397;44.552;-0.848;2023-07-13T04:03:32;18.70;99.90
42743;DHT22;28397;44.552;-0.848;2023-07-13T04:05:59;18.60;99.90
42743;DHT22;28397;44.552;-0.848;2023-07-13T04:08:30;18.50;99.90
42743;DHT22;28397;44.552;-0.848;2023-07-13T04:10:57;18.50;99.90
42743;DHT22;28397;44.552;-0.848;2023-07-13T04:13:24;18.40;99.90
42743;DHT22;28397;44.552;-0.848;2023-07-13T04:15:50;18.50;99.90
42743;DHT22;28397;44.552;-0.848;2023-07-13T04:18:16;18.50;99.90
42743;DHT22;28397;44.552;-0.848;2023-07-13T04:20:42;18.60;99.90
42743;DHT22;28397;44.552;-0.848;2023-07-13T04:23:08;18.70;99.90
42743;DHT22;28397;44.552;-0.848;2023-07-13T04:25:34;18.70;99.90
42743;DHT22;28397;44.552;-0.848;2023-07-13T04:27:59;18.60;99.90
42743;DHT22;28397;44.552;-0.848;2023-07-13T04:30:25;18.60;99.90
42743;DHT22;28397;44.552;-0.848;2023-07-13T04:32:52;18.60;99.90
42743;DHT22;28397;44.552;-0.848;2023-07-13T04:35:19;18.60;99.90
42743;DHT22;28397;44.552;-0.848;2023-07-13T04:37:47;18.50;99.90
42743;DHT22;28397;44.552;-0.848;2023-07-13T04:40:18;18.60;99.90
42743;DHT22;28397;44.552;-0.848;2023-07-13T04:42:45;18.60;99.90
42743;DHT22;28397;44.552;-0.848;2023-07-13T04:45:11;18.60;99.90
42743;DHT22;28397;44.552;-0.848;2023-07-13T04:47:37;18.40;99.90
42743;DHT22;28397;44.552;-0.848;2023-07-13T04:50:03;18.30;99.90
42743;DHT22;28397;44.552;-0.848;2023-07-13T04:52:29;18.20;99.90
42743;DHT22;28397;44.552;-0.848;2023-07-13T04:54:55;18.10;99.90
42743;DHT22;28397;44.552;-0.848;2023-07-13T04:57:21;18.10;99.90
42743;DHT22;28397;44.552;-0.848;2023-07-13T04:59:47;18.00;99.90
42743;DHT22;28397;44.552;-0.848;2023-07-13T05:02:12;18.00;99.90
42743;DHT22;28397;44.552;-0.848;2023-07-13T05:04:38;17.90;99.90
42743;DHT22;28397;44.552;-0.848;2023-07-13T05:07:05;17.80;99.90
42743;DHT22;28397;44.552;-0.848;2023-07-13T05:09:31;17.70;99.90
42743;DHT22;28397;44.552;-0.848;2023-07-13T05:11:57;17.70;99.90
42743;DHT22;28397;44.552;-0.848;2023-07-13T05:14:23;17.70;99.90
42743;DHT22;28397;44.552;-0.848;2023-07-13T05:16:48;17.60;99.90
42743;DHT22;28397;44.552;-0.848;2023-07-13T05:19:14;17.70;99.90
42743;DHT22;28397;44.552;-0.848;2023-07-13T05:21:39;17.80;99.90
42743;DHT22;28397;44.552;-0.848;2023-07-13T05:24:06;17.80;99.90
42743;DHT22;28397;44.552;-0.848;2023-07-13T05:26:32;17.80;99.90
42743;DHT22;28397;44.552;-0.848;2023-07-13T05:28:58;17.90;99.90
42743;DHT22;28397;44.552;-0.848;2023-07-13T05:31:23;18.00;99.90
42743;DHT22;28397;44.552;-0.848;2023-07-13T05:33:49;18.10;99.90
42743;DHT22;28397;44.552;-0.848;2023-07-13T05:36:15;18.20;99.90
42743;DHT22;28397;44.552;-0.848;2023-07-13T05:38:40;18.40;99.90
42743;DHT22;28397;44.552;-0.848;2023-07-13T05:41:06;18.50;99.90
42743;DHT22;28397;44.552;-0.848;2023-07-13T05:43:32;18.60;99.90
42743;DHT22;28397;44.552;-0.848;2023-07-13T05:45:58;19.00;99.90
42743;DHT22;28397;44.552;-0.848;2023-07-13T05:48:24;19.00;99.90
42743;DHT22;28397;44.552;-0.848;2023-07-13T05:50:50;19.10;99.90
42743;DHT22;28397;44.552;-0.848;2023-07-13T05:53:15;19.10;99.90
42743;DHT22;28397;44.552;-0.848;2023-07-13T05:55:46;19.20;99.90
42743;DHT22;28397;44.552;-0.848;2023-07-13T05:58:19;19.20;99.90
42743;DHT22;28397;44.552;-0.848;2023-07-13T06:00:48;19.10;99.90
42743;DHT22;28397;44.552;-0.848;2023-07-13T06:03:14;19.20;99.90
42743;DHT22;28397;44.552;-0.848;2023-07-13T06:05:41;19.00;99.90
42743;DHT22;28397;44.552;-0.848;2023-07-13T06:08:07;18.90;99.90
42743;DHT22;28397;44.552;-0.848;2023-07-13T06:10:34;18.80;99.90
42743;DHT22;28397;44.552;-0.848;2023-07-13T06:13:00;18.70;99.90
42743;DHT22;28397;44.552;-0.848;2023-07-13T06:15:26;18.70;99.90
42743;DHT22;28397;44.552;-0.848;2023-07-13T06:17:52;18.60;99.90
42743;DHT22;28397;44.552;-0.848;2023-07-13T06:20:17;18.70;99.90
42743;DHT22;28397;44.552;-0.848;2023-07-13T06:22:43;18.80;99.90
42743;DHT22;28397;44.552;-0.848;2023-07-13T06:25:09;18.90;99.90
42743;DHT22;28397;44.552;-0.848;2023-07-13T06:27:34;19.00;99.90
42743;DHT22;28397;44.552;-0.848;2023-07-13T06:30:00;19.00;99.90
42743;DHT22;28397;44.552;-0.848;2023-07-13T06:32:26;19.00;99.90
42743;DHT22;28397;44.552;-0.848;2023-07-13T06:34:51;19.10;99.90
42743;DHT22;28397;44.552;-0.848;2023-07-13T06:37:18;19.20;99.90
42743;DHT22;28397;44.552;-0.848;2023-07-13T06:39:43;19.40;99.90
42743;DHT22;28397;44.552;-0.848;2023-07-13T06:42:09;19.30;99.90
42743;DHT22;28397;44.552;-0.848;2023-07-13T06:44:35;19.40;99.90
42743;DHT22;28397;44.552;-0.848;2023-07-13T06:47:00;19.40;99.90
42743;DHT22;28397;44.552;-0.848;2023-07-13T06:49:26;19.40;99.90
42743;DHT22;28397;44.552;-0.848;2023-07-13T06:51:52;19.50;99.90
42743;DHT22;28397;44.552;-0.848;2023-07-13T06:54:17;19.60;99.90
42743;DHT22;28397;44.552;-0.848;2023-07-13T06:56:43;19.70;99.90
42743;DHT22;28397;44.552;-0.848;2023-07-13T06:59:09;19.90;99.90
42743;DHT22;28397;44.552;-0.848;2023-07-13T07:01:34;20.20;99.90
42743;DHT22;28397;44.552;-0.848;2023-07-13T07:04:00;20.40;99.90
42743;DHT22;28397;44.552;-0.848;2023-07-13T07:06:26;20.50;99.90
42743;DHT22;28397;44.552;-0.848;2023-07-13T07:08:52;20.40;99.90
42743;DHT22;28397;44.552;-0.848;2023-07-13T07:11:25;20.30;99.90
42743;DHT22;28397;44.552;-0.848;2023-07-13T07:13:52;20.40;99.90
42743;DHT22;28397;44.552;-0.848;2023-07-13T07:16:19;20.50;99.90
42743;DHT22;28397;44.552;-0.848;2023-07-13T07:18:46;20.50;99.90
42743;DHT22;28397;44.552;-0.848;2023-07-13T07:21:12;20.50;99.90
42743;DHT22;28397;44.552;-0.848;2023-07-13T07:23:38;20.50;99.90
42743;DHT22;28397;44.552;-0.848;2023-07-13T07:26:04;20.40;99.90
42743;DHT22;28397;44.552;-0.848;2023-07-13T07:28:30;20.40;99.90
42743;DHT22;28397;44.552;-0.848;2023-07-13T07:30:57;20.20;99.90
42743;DHT22;28397;44.552;-0.848;2023-07-13T07:33:24;20.20;99.90
42743;DHT22;28397;44.552;-0.848;2023-07-13T07:35:50;20.20;99.90
42743;DHT22;28397;44.552;-0.848;2023-07-13T07:38:16;20.20;99.90
42743;DHT22;28397;44.552;-0.848;2023-07-13T07:40:42;20.10;99.90
42743;DHT22;28397;44.552;-0.848;2023-07-13T07:43:10;20.20;99.90
42743;DHT22;28397;44.552;-0.848;2023-07-13T07:45:36;20.20;99.90
42743;DHT22;28397;44.552;-0.848;2023-07-13T07:48:03;20.20;99.90
42743;DHT22;28397;44.552;-0.848;2023-07-13T07:50:30;20.30;99.90
42743;DHT22;28397;44.552;-0.848;2023-07-13T07:52:56;20.30;99.90
42743;DHT22;28397;44.552;-0.848;2023-07-13T07:55:22;20.30;99.90
42743;DHT22;28397;44.552;-0.848;2023-07-13T07:57:48;20.30;99.90
42743;DHT22;28397;44.552;-0.848;2023-07-13T08:00:15;20.20;99.90
42743;DHT22;28397;44.552;-0.848;2023-07-13T08:02:41;20.20;99.90
42743;DHT22;28397;44.552;-0.848;2023-07-13T08:05:09;20.30;99.90
42743;DHT22;28397;44.552;-0.848;2023-07-13T08:07:37;20.40;99.90
42743;DHT22;28397;44.552;-0.848;2023-07-13T08:10:03;20.50;99.90
42743;DHT22;28397;44.552;-0.848;2023-07-13T08:12:29;20.50;99.90
42743;DHT22;28397;44.552;-0.848;2023-07-13T08:14:54;20.70;99.90
42743;DHT22;28397;44.552;-0.848;2023-07-13T08:17:23;20.90;99.90
42743;DHT22;28397;44.552;-0.848;2023-07-13T08:19:50;21.00;99.90
42743;DHT22;28397;44.552;-0.848;2023-07-13T08:22:15;21.10;99.90
42743;DHT22;28397;44.552;-0.848;2023-07-13T08:24:41;21.20;99.90
42743;DHT22;28397;44.552;-0.848;2023-07-13T08:27:10;21.20;99.90
42743;DHT22;28397;44.552;-0.848;2023-07-13T08:29:39;21.30;99.90
42743;DHT22;28397;44.552;-0.848;2023-07-13T08:32:07;21.40;99.90
42743;DHT22;28397;44.552;-0.848;2023-07-13T08:34:36;21.50;99.90
42743;DHT22;28397;44.552;-0.848;2023-07-13T08:37:02;21.60;99.90
42743;DHT22;28397;44.552;-0.848;2023-07-13T08:39:29;21.60;99.90
42743;DHT22;28397;44.552;-0.848;2023-07-13T08:42:11;21.60;99.90
42743;DHT22;28397;44.552;-0.848;2023-07-13T08:47:41;21.50;99.90
42743;DHT22;28397;44.552;-0.848;2023-07-13T08:50:15;21.40;99.90
42743;DHT22;28397;44.552;-0.848;2023-07-13T08:52:43;21.20;99.90
42743;DHT22;28397;44.552;-0.848;2023-07-13T08:55:21;21.20;99.90
42743;DHT22;28397;44.552;-0.848;2023-07-13T08:57:54;21.20;99.90
42743;DHT22;28397;44.552;-0.848;2023-07-13T09:00:22;21.20;99.90
42743;DHT22;28397;44.552;-0.848;2023-07-13T09:02:56;21.30;99.90
42743;DHT22;28397;44.552;-0.848;2023-07-13T09:05:33;21.50;99.90
42743;DHT22;28397;44.552;-0.848;2023-07-13T09:08:09;21.50;99.90
42743;DHT22;28397;44.552;-0.848;2023-07-13T09:10:42;21.50;99.90
42743;DHT22;28397;44.552;-0.848;2023-07-13T09:15:52;21.40;99.90
42743;DHT22;28397;44.552;-0.848;2023-07-13T09:18:34;21.40;99.90
42743;DHT22;28397;44.552;-0.848;2023-07-13T09:23:30;21.50;99.90
42743;DHT22;28397;44.552;-0.848;2023-07-13T09:26:11;21.50;99.90
42743;DHT22;28397;44.552;-0.848;2023-07-13T09:28:45;21.60;99.90
42743;DHT22;28397;44.552;-0.848;2023-07-13T09:31:20;21.60;99.90
42743;DHT22;28397;44.552;-0.848;2023-07-13T09:33:48;21.90;99.90
42743;DHT22;28397;44.552;-0.848;2023-07-13T09:36:31;22.10;99.90
42743;DHT22;28397;44.552;-0.848;2023-07-13T09:45:00;22.30;99.90
42743;DHT22;28397;44.552;-0.848;2023-07-13T09:47:32;22.50;99.90
42743;DHT22;28397;44.552;-0.848;2023-07-13T09:50:10;22.60;99.90
42743;DHT22;28397;44.552;-0.848;2023-07-13T09:52:45;22.60;99.90
42743;DHT22;28397;44.552;-0.848;2023-07-13T09:55:28;22.60;99.90
42743;DHT22;28397;44.552;-0.848;2023-07-13T09:57:54;22.70;99.90
42743;DHT22;28397;44.552;-0.848;2023-07-13T10:00:26;22.70;99.90
42743;DHT22;28397;44.552;-0.848;2023-07-13T10:03:04;22.90;99.90
42743;DHT22;28397;44.552;-0.848;2023-07-13T10:05:43;22.80;99.90
42743;DHT22;28397;44.552;-0.848;2023-07-13T10:08:17;22.70;99.90
42743;DHT22;28397;44.552;-0.848;2023-07-13T10:10:44;22.60;99.90
42743;DHT22;28397;44.552;-0.848;2023-07-13T10:13:37;22.70;99.90
42743;DHT22;28397;44.552;-0.848;2023-07-13T10:16:04;22.80;99.90
42743;DHT22;28397;44.552;-0.848;2023-07-13T10:18:48;22.80;99.90
42743;DHT22;28397;44.552;-0.848;2023-07-13T10:21:18;22.90;99.90
42743;DHT22;28397;44.552;-0.848;2023-07-13T10:23:48;22.90;99.90
42743;DHT22;28397;44.552;-0.848;2023-07-13T10:26:20;23.00;99.90
42743;DHT22;28397;44.552;-0.848;2023-07-13T10:28:52;23.10;99.90
42743;DHT22;28397;44.552;-0.848;2023-07-13T10:31:21;23.20;99.90
42743;DHT22;28397;44.552;-0.848;2023-07-13T10:33:47;23.20;99.90
42743;DHT22;28397;44.552;-0.848;2023-07-13T10:38:50;23.00;99.90
42743;DHT22;28397;44.552;-0.848;2023-07-13T10:41:21;23.20;99.90
42743;DHT22;28397;44.552;-0.848;2023-07-13T10:43:50;23.20;99.90
42743;DHT22;28397;44.552;-0.848;2023-07-13T10:46:19;23.50;99.90
42743;DHT22;28397;44.552;-0.848;2023-07-13T10:48:49;23.60;99.90
42743;DHT22;28397;44.552;-0.848;2023-07-13T10:51:18;23.70;99.90
42743;DHT22;28397;44.552;-0.848;2023-07-13T10:53:47;23.70;99.90
42743;DHT22;28397;44.552;-0.848;2023-07-13T10:56:24;23.80;99.90
42743;DHT22;28397;44.552;-0.848;2023-07-13T11:04:29;23.90;99.90
42743;DHT22;28397;44.552;-0.848;2023-07-13T11:07:20;24.00;99.90
42743;DHT22;28397;44.552;-0.848;2023-07-13T11:09:50;23.90;99.90
42743;DHT22;28397;44.552;-0.848;2023-07-13T11:22:48;24.10;99.90
42743;DHT22;28397;44.552;-0.848;2023-07-13T11:36:05;23.70;99.90
42743;DHT22;28397;44.552;-0.848;2023-07-13T11:38:39;23.60;99.90
42743;DHT22;28397;44.552;-0.848;2023-07-13T11:41:17;23.70;99.90
42743;DHT22;28397;44.552;-0.848;2023-07-13T11:43:44;23.80;99.90
42743;DHT22;28397;44.552;-0.848;2023-07-13T11:46:15;23.80;99.90
42743;DHT22;28397;44.552;-0.848;2023-07-13T11:48:41;24.00;99.90
42743;DHT22;28397;44.552;-0.848;2023-07-13T11:51:15;24.00;99.90
42743;DHT22;28397;44.552;-0.848;2023-07-13T11:53:46;23.90;99.90
42743;DHT22;28397;44.552;-0.848;2023-07-13T11:56:12;24.00;99.90
42743;DHT22;28397;44.552;-0.848;2023-07-13T11:58:38;24.00;99.90
42743;DHT22;28397;44.552;-0.848;2023-07-13T12:01:04;23.80;99.90
42743;DHT22;28397;44.552;-0.848;2023-07-13T12:03:32;23.80;99.90
42743;DHT22;28397;44.552;-0.848;2023-07-13T12:06:01;23.90;99.90
42743;DHT22;28397;44.552;-0.848;2023-07-13T12:08:27;23.90;99.90
42743;DHT22;28397;44.552;-0.848;2023-07-13T12:11:02;24.10;99.90
42743;DHT22;28397;44.552;-0.848;2023-07-13T12:13:35;24.20;99.90
42743;DHT22;28397;44.552;-0.848;2023-07-13T12:16:02;24.50;99.90
42743;DHT22;28397;44.552;-0.848;2023-07-13T12:18:31;24.50;99.90
42743;DHT22;28397;44.552;-0.848;2023-07-13T12:20:59;24.50;99.90
42743;DHT22;28397;44.552;-0.848;2023-07-13T12:23:27;24.60;99.90
42743;DHT22;28397;44.552;-0.848;2023-07-13T12:25:54;24.60;99.90
42743;DHT22;28397;44.552;-0.848;2023-07-13T12:28:21;24.50;99.90
42743;DHT22;28397;44.552;-0.848;2023-07-13T12:30:48;24.40;99.90
42743;DHT22;28397;44.552;-0.848;2023-07-13T12:33:16;24.30;99.90
42743;DHT22;28397;44.552;-0.848;2023-07-13T12:35:46;24.20;99.90
42743;DHT22;28397;44.552;-0.848;2023-07-13T12:38:13;24.20;99.90
42743;DHT22;28397;44.552;-0.848;2023-07-13T12:40:40;24.10;99.90
42743;DHT22;28397;44.552;-0.848;2023-07-13T12:43:14;24.10;99.90
42743;DHT22;28397;44.552;-0.848;2023-07-13T12:45:58;24.10;99.90
42743;DHT22;28397;44.552;-0.848;2023-07-13T12:48:24;23.80;99.90
42743;DHT22;28397;44.552;-0.848;2023-07-13T12:50:53;23.70;99.90
42743;DHT22;28397;44.552;-0.848;2023-07-13T12:53:22;23.70;99.90
42743;DHT22;28397;44.552;-0.848;2023-07-13T12:55:58;23.70;99.90
42743;DHT22;28397;44.552;-0.848;2023-07-13T12:58:35;23.80;99.90
42743;DHT22;28397;44.552;-0.848;2023-07-13T13:01:03;23.90;99.90
42743;DHT22;28397;44.552;-0.848;2023-07-13T13:03:35;23.90;99.90
42743;DHT22;28397;44.552;-0.848;2023-07-13T13:08:48;23.70;99.90
42743;DHT22;28397;44.552;-0.848;2023-07-13T13:11:15;23.70;99.90
42743;DHT22;28397;44.552;-0.848;2023-07-13T13:13:44;23.60;99.90
42743;DHT22;28397;44.552;-0.848;2023-07-13T13:18:46;23.70;99.90
42743;DHT22;28397;44.552;-0.848;2023-07-13T13:21:11;23.60;99.90
42743;DHT22;28397;44.552;-0.848;2023-07-13T13:23:37;23.50;99.90
42743;DHT22;28397;44.552;-0.848;2023-07-13T13:26:08;23.70;99.90
42743;DHT22;28397;44.552;-0.848;2023-07-13T13:28:34;23.90;99.90
42743;DHT22;28397;44.552;-0.848;2023-07-13T13:31:00;24.00;99.90
42743;DHT22;28397;44.552;-0.848;2023-07-13T13:33:26;24.20;99.90
42743;DHT22;28397;44.552;-0.848;2023-07-13T13:35:51;24.60;99.90
42743;DHT22;28397;44.552;-0.848;2023-07-13T13:38:20;24.70;99.90
42743;DHT22;28397;44.552;-0.848;2023-07-13T13:40:47;24.80;99.90
42743;DHT22;28397;44.552;-0.848;2023-07-13T13:43:23;25.00;99.90
42743;DHT22;28397;44.552;-0.848;2023-07-13T13:45:59;25.10;99.90
42743;DHT22;28397;44.552;-0.848;2023-07-13T13:48:36;25.20;99.90
42743;DHT22;28397;44.552;-0.848;2023-07-13T13:51:19;25.50;99.90
42743;DHT22;28397;44.552;-0.848;2023-07-13T13:53:45;25.40;99.90
42743;DHT22;28397;44.552;-0.848;2023-07-13T13:56:12;25.30;99.90
42743;DHT22;28397;44.552;-0.848;2023-07-13T13:58:39;25.10;99.90
42743;DHT22;28397;44.552;-0.848;2023-07-13T14:01:10;25.30;99.90
42743;DHT22;28397;44.552;-0.848;2023-07-13T14:03:37;25.50;99.90
42743;DHT22;28397;44.552;-0.848;2023-07-13T14:06:03;25.50;99.90
42743;DHT22;28397;44.552;-0.848;2023-07-13T14:08:29;25.70;99.90
42743;DHT22;28397;44.552;-0.848;2023-07-13T14:10:57;26.00;99.90
42743;DHT22;28397;44.552;-0.848;2023-07-13T14:13:52;26.00;99.90
42743;DHT22;28397;44.552;-0.848;2023-07-13T14:16:20;25.90;99.90
42743;DHT22;28397;44.552;-0.848;2023-07-13T14:18:47;26.00;99.90
42743;DHT22;28397;44.552;-0.848;2023-07-13T14:21:18;26.00;99.90
42743;DHT22;28397;44.552;-0.848;2023-07-13T14:23:45;26.00;99.90
42743;DHT22;28397;44.552;-0.848;2023-07-13T14:26:14;26.00;99.90
42743;DHT22;28397;44.552;-0.848;2023-07-13T14:28:46;26.10;99.90
42743;DHT22;28397;44.552;-0.848;2023-07-13T14:31:13;26.30;99.90
42743;DHT22;28397;44.552;-0.848;2023-07-13T14:33:39;26.30;99.90
42743;DHT22;28397;44.552;-0.848;2023-07-13T14:36:31;26.60;99.90
42743;DHT22;28397;44.552;-0.848;2023-07-13T14:38:59;26.40;99.90
42743;DHT22;28397;44.552;-0.848;2023-07-13T14:41:25;26.40;99.90
42743;DHT22;28397;44.552;-0.848;2023-07-13T14:43:51;26.50;99.90
42743;DHT22;28397;44.552;-0.848;2023-07-13T14:46:34;26.60;99.90
42743;DHT22;28397;44.552;-0.848;2023-07-13T14:51:48;26.50;99.90
42743;DHT22;28397;44.552;-0.848;2023-07-13T14:54:13;26.50;99.90
42743;DHT22;28397;44.552;-0.848;2023-07-13T14:56:40;26.60;99.90
42743;DHT22;28397;44.552;-0.848;2023-07-13T14:59:05;26.90;99.90
42743;DHT22;28397;44.552;-0.848;2023-07-13T15:01:36;27.00;99.90
42743;DHT22;28397;44.552;-0.848;2023-07-13T15:04:02;27.30;99.90
42743;DHT22;28397;44.552;-0.848;2023-07-13T15:06:29;27.30;99.90
42743;DHT22;28397;44.552;-0.848;2023-07-13T15:08:57;27.20;99.90
42743;DHT22;28397;44.552;-0.848;2023-07-13T15:11:22;27.50;99.90
42743;DHT22;28397;44.552;-0.848;2023-07-13T15:13:48;27.40;99.90
42743;DHT22;28397;44.552;-0.848;2023-07-13T15:16:23;27.50;99.90
42743;DHT22;28397;44.552;-0.848;2023-07-13T15:18:49;27.70;99.90
42743;DHT22;28397;44.552;-0.848;2023-07-13T15:21:23;27.70;99.90
42743;DHT22;28397;44.552;-0.848;2023-07-13T15:23:50;27.80;99.90
42743;DHT22;28397;44.552;-0.848;2023-07-13T15:26:18;27.80;99.90
42743;DHT22;28397;44.552;-0.848;2023-07-13T15:28:46;27.80;99.90
42743;DHT22;28397;44.552;-0.848;2023-07-13T15:31:32;27.70;99.90
42743;DHT22;28397;44.552;-0.848;2023-07-13T15:33:59;27.80;99.90
42743;DHT22;28397;44.552;-0.848;2023-07-13T15:36:26;28.10;99.90
42743;DHT22;28397;44.552;-0.848;2023-07-13T15:38:53;27.90;99.90
42743;DHT22;28397;44.552;-0.848;2023-07-13T15:41:26;27.90;99.90
42743;DHT22;28397;44.552;-0.848;2023-07-13T15:43:54;27.80;99.90
42743;DHT22;28397;44.552;-0.848;2023-07-13T15:46:22;27.90;99.90
42743;DHT22;28397;44.552;-0.848;2023-07-13T15:48:49;27.80;99.90
42743;DHT22;28397;44.552;-0.848;2023-07-13T15:51:24;27.70;99.90
42743;DHT22;28397;44.552;-0.848;2023-07-13T15:53:56;27.70;99.90
42743;DHT22;28397;44.552;-0.848;2023-07-13T15:56:24;27.90;99.90
42743;DHT22;28397;44.552;-0.848;2023-07-13T15:58:51;27.80;99.90
42743;DHT22;28397;44.552;-0.848;2023-07-13T16:01:18;27.90;99.90
42743;DHT22;28397;44.552;-0.848;2023-07-13T16:03:45;27.80;99.90
42743;DHT22;28397;44.552;-0.848;2023-07-13T16:06:21;27.40;99.90
42743;DHT22;28397;44.552;-0.848;2023-07-13T16:08:49;27.40;99.90
42743;DHT22;28397;44.552;-0.848;2023-07-13T16:11:24;27.50;99.90
42743;DHT22;28397;44.552;-0.848;2023-07-13T16:13:51;27.60;99.90
42743;DHT22;28397;44.552;-0.848;2023-07-13T16:16:27;27.80;99.90